createdAt,value
2018-09-29T00:00:00.525Z,56087.14
2018-09-29T00:02:29.702Z,56096.39
2018-09-29T00:04:58.850Z,56131.35
2018-09-29T00:07:28.010Z,56110.79
2018-09-29T00:09:57.137Z,56110.79
2018-09-29T00:12:26.312Z,56100.50
2018-09-29T00:14:55.452Z,56091.25
2018-09-29T00:17:24.608Z,56098.45
2018-09-29T00:19:54.034Z,56119.01
2018-09-29T00:22:23.224Z,56095.36
2018-09-29T00:24:52.367Z,56098.45
2018-09-29T00:27:21.518Z,56119.01
2018-09-29T00:29:50.657Z,56114.90
2018-09-29T00:32:19.776Z,56084.05
2018-09-29T00:34:48.956Z,56067.60
2018-09-29T00:37:18.117Z,56077.88
2018-09-29T00:39:47.279Z,56135.46
2018-09-29T00:42:16.414Z,56135.46
2018-09-29T00:44:45.573Z,56098.45
2018-09-29T00:47:14.738Z,56127.23
2018-09-29T00:49:43.863Z,56094.33
2018-09-29T00:52:13.018Z,56113.87
2018-09-29T00:54:42.139Z,56117.98
2018-09-29T00:57:11.330Z,56127.23
2018-09-29T00:59:40.462Z,56139.57
2018-09-29T01:02:09.704Z,56109.76
2018-09-29T01:04:38.868Z,56073.77
2018-09-29T01:07:08.075Z,56109.76
2018-09-29T01:09:37.241Z,56096.39
2018-09-29T01:12:06.016Z,56097.42
2018-09-29T01:14:35.151Z,56129.29
2018-09-29T01:17:04.266Z,56119.01
2018-09-29T01:19:33.445Z,56114.90
2018-09-29T01:22:02.604Z,56125.18
2018-09-29T01:24:31.709Z,56110.79
2018-09-29T01:27:00.841Z,56119.01
2018-09-29T01:29:29.974Z,56111.81
2018-09-29T01:31:59.158Z,56096.39
2018-09-29T01:34:28.303Z,56112.84
2018-09-29T01:36:57.436Z,56116.95
2018-09-29T01:39:26.651Z,56126.21
2018-09-29T01:41:55.837Z,56098.45
2018-09-29T01:44:25.029Z,56111.81
2018-09-29T01:46:54.173Z,56086.11
2018-09-29T01:49:23.334Z,56112.84
2018-09-29T01:51:52.497Z,56132.38
2018-09-29T01:54:21.693Z,56100.50
2018-09-29T01:56:50.859Z,56122.09
2018-09-29T01:59:20.030Z,56125.18
2018-09-29T02:01:49.188Z,56095.36
2018-09-29T02:04:18.325Z,56102.56
2018-09-29T02:06:47.475Z,56088.16
2018-09-29T02:09:16.603Z,56113.87
2018-09-29T02:11:45.753Z,56093.30
2018-09-29T02:14:14.901Z,56098.45
2018-09-29T02:16:44.084Z,56143.69
2018-09-29T02:19:13.234Z,56132.38
2018-09-29T02:21:42.368Z,56127.23
2018-09-29T02:24:11.501Z,56119.01
2018-09-29T02:26:40.669Z,56082.00
2018-09-29T02:29:09.858Z,56098.45
2018-09-29T02:31:39.042Z,56131.35
2018-09-29T02:34:08.323Z,56132.38
2018-09-29T02:36:37.468Z,56123.12
2018-09-29T02:39:09.921Z,56099.47
2018-09-29T02:41:39.152Z,56114.90
2018-09-29T02:44:08.810Z,56129.29
2018-09-29T02:46:38.073Z,56123.12
2018-09-29T02:49:07.268Z,56109.76
2018-09-29T02:51:36.395Z,56095.36
2018-09-29T02:54:05.716Z,56133.41
2018-09-29T02:56:34.857Z,56107.70
2018-09-29T02:59:04.009Z,56088.16
2018-09-29T03:01:33.216Z,56128.27
2018-09-29T03:04:02.359Z,56119.01
2018-09-29T03:06:31.515Z,56125.18
2018-09-29T03:09:00.657Z,56116.95
2018-09-29T03:11:29.819Z,56131.35
2018-09-29T03:13:58.950Z,56109.76
2018-09-29T03:16:28.096Z,56102.56
2018-09-29T03:18:57.218Z,56124.15
2018-09-29T03:21:26.383Z,56102.56
2018-09-29T03:23:55.556Z,56111.81
2018-09-29T03:26:24.714Z,56113.87
2018-09-29T03:28:53.854Z,56097.42
2018-09-29T03:31:23.023Z,56128.27
2018-09-29T03:33:52.187Z,56162.20
2018-09-29T03:36:21.376Z,56150.89
2018-09-29T03:38:50.499Z,56119.01
2018-09-29T03:41:19.633Z,56119.01
2018-09-29T03:43:48.840Z,56169.39
2018-09-29T03:46:18.069Z,56143.69
2018-09-29T03:48:47.236Z,56100.50
2018-09-29T03:51:16.416Z,56130.32
2018-09-29T03:53:45.632Z,56133.41
2018-09-29T03:56:14.748Z,56145.75
2018-09-29T03:58:44.024Z,56115.93
2018-09-29T04:01:13.216Z,56108.73
2018-09-29T04:03:42.336Z,56112.84
2018-09-29T04:06:11.499Z,56110.79
2018-09-29T04:08:40.658Z,56114.90
2018-09-29T04:11:09.824Z,56117.98
2018-09-29T04:13:39.140Z,56126.21
2018-09-29T04:16:08.252Z,56119.01
2018-09-29T04:18:37.430Z,56141.63
2018-09-29T04:21:06.653Z,56125.18
2018-09-29T04:23:35.791Z,56123.12
2018-09-29T04:26:04.905Z,56132.38
2018-09-29T04:28:34.096Z,56117.98
2018-09-29T04:31:03.239Z,56126.21
2018-09-29T04:33:32.411Z,56129.29
2018-09-29T04:36:01.617Z,56147.80
2018-09-29T04:38:30.797Z,56139.57
2018-09-29T04:40:59.900Z,56122.09
2018-09-29T04:43:29.016Z,56151.91
2018-09-29T04:45:58.160Z,56137.52
2018-09-29T04:48:27.316Z,56156.03
2018-09-29T04:50:56.432Z,56143.69
2018-09-29T04:53:25.593Z,56135.46
2018-09-29T04:55:54.785Z,56124.15
2018-09-29T04:58:23.955Z,56137.52
2018-09-29T05:00:53.136Z,56134.43
2018-09-29T05:03:22.309Z,56113.87
2018-09-29T05:05:51.474Z,56135.46
2018-09-29T05:08:20.845Z,56122.09
2018-09-29T05:10:49.980Z,56129.29
2018-09-29T05:13:19.107Z,56145.75
2018-09-29T05:15:48.276Z,56136.49
2018-09-29T05:18:17.426Z,56151.91
2018-09-29T05:20:46.618Z,56129.29
2018-09-29T05:23:15.800Z,56155.00
2018-09-29T05:25:44.998Z,56087.14
2018-09-29T05:28:14.134Z,56123.12
2018-09-29T05:30:43.360Z,56122.09
2018-09-29T05:33:12.468Z,56137.52
2018-09-29T05:35:41.619Z,56120.04
2018-09-29T05:38:10.726Z,56126.21
2018-09-29T05:40:39.829Z,56112.84
2018-09-29T05:43:08.950Z,56102.56
2018-09-29T05:45:38.027Z,56137.52
2018-09-29T05:48:07.153Z,56131.35
2018-09-29T05:50:36.318Z,56096.39
2018-09-29T05:53:05.412Z,56110.79
2018-09-29T05:55:34.537Z,56087.14
2018-09-29T05:58:03.646Z,56119.01
2018-09-29T06:00:32.955Z,56091.25
2018-09-29T06:03:02.069Z,56119.01
2018-09-29T06:05:31.208Z,56122.09
2018-09-29T06:08:00.263Z,56106.67
2018-09-29T06:10:29.404Z,56100.50
2018-09-29T06:13:05.256Z,56115.93
2018-09-29T06:15:34.405Z,56113.87
2018-09-29T06:18:03.561Z,56085.08
2018-09-29T06:20:32.716Z,56129.29
2018-09-29T06:23:01.868Z,56103.59
2018-09-29T06:25:31.021Z,56110.79
2018-09-29T06:28:00.172Z,56098.45
2018-09-29T06:30:29.252Z,56107.70
2018-09-29T06:32:58.364Z,56120.04
2018-09-29T06:35:27.484Z,56114.90
2018-09-29T06:37:56.588Z,56091.25
2018-09-29T06:40:25.847Z,56071.71
2018-09-29T06:42:54.968Z,56088.16
2018-09-29T06:45:24.199Z,56092.28
2018-09-29T06:47:53.507Z,56091.25
2018-09-29T06:50:22.608Z,56110.79
2018-09-29T06:52:51.836Z,56102.56
2018-09-29T06:55:20.969Z,56108.73
2018-09-29T06:57:50.090Z,56070.68
2018-09-29T07:00:19.246Z,56073.77
2018-09-29T07:02:48.484Z,56080.96
2018-09-29T07:05:17.609Z,56056.29
2018-09-29T07:07:47.735Z,56060.40
2018-09-29T07:10:16.873Z,56088.16
2018-09-29T07:12:46.060Z,56097.42
2018-09-29T07:15:15.198Z,56072.74
2018-09-29T07:17:44.344Z,56074.80
2018-09-29T07:20:13.538Z,56060.40
2018-09-29T07:22:42.696Z,56053.20
2018-09-29T07:25:11.840Z,56060.40
2018-09-29T07:27:40.996Z,56067.60
2018-09-29T07:30:10.145Z,56063.48
2018-09-29T07:32:39.259Z,56028.52
2018-09-29T07:35:08.408Z,56068.62
2018-09-29T07:37:37.548Z,56070.68
2018-09-29T07:40:06.814Z,56051.14
2018-09-29T07:42:36.095Z,56042.92
2018-09-29T07:45:05.268Z,56024.41
2018-09-29T07:47:34.392Z,56040.86
2018-09-29T07:50:03.573Z,56069.65
2018-09-29T07:52:32.685Z,56071.71
2018-09-29T07:55:01.859Z,56073.77
2018-09-29T07:57:31.008Z,56020.30
2018-09-29T08:00:00.184Z,56056.29
2018-09-29T08:02:29.368Z,56044.98
2018-09-29T08:04:58.549Z,56048.06
2018-09-29T08:07:27.692Z,56047.03
2018-09-29T08:09:56.825Z,56062.46
2018-09-29T08:12:26.047Z,56040.86
2018-09-29T08:14:55.187Z,56025.44
2018-09-29T08:17:24.331Z,56050.12
2018-09-29T08:19:53.672Z,56035.72
2018-09-29T08:22:22.840Z,56031.61
2018-09-29T08:24:52.033Z,56040.86
2018-09-29T08:27:21.181Z,56053.20
2018-09-29T08:29:50.317Z,56029.55
2018-09-29T08:32:19.492Z,56047.03
2018-09-29T08:34:48.637Z,56020.30
2018-09-29T08:37:18.133Z,56027.50
2018-09-29T08:39:47.346Z,56028.52
2018-09-29T08:42:16.495Z,56032.64
2018-09-29T08:44:45.694Z,55988.43
2018-09-29T08:47:14.844Z,56039.84
2018-09-29T08:49:44.031Z,56043.95
2018-09-29T08:52:13.195Z,56032.64
2018-09-29T08:54:42.381Z,56042.92
2018-09-29T08:57:11.539Z,55994.59
2018-09-29T08:59:40.728Z,56037.78
2018-09-29T09:02:09.856Z,55991.51
2018-09-29T09:04:39.058Z,56030.58
2018-09-29T09:07:08.210Z,56036.75
2018-09-29T09:09:37.416Z,55964.78
2018-09-29T09:12:06.544Z,56011.05
2018-09-29T09:14:35.684Z,56005.90
2018-09-29T09:17:04.871Z,55994.59
2018-09-29T09:19:33.981Z,56008.99
2018-09-29T09:22:03.153Z,55987.40
2018-09-29T09:24:32.296Z,55881.49
2018-09-29T09:27:01.446Z,55870.18
2018-09-29T09:29:30.587Z,55871.21
2018-09-29T09:31:59.762Z,55918.50
2018-09-29T09:34:28.899Z,55926.73
2018-09-29T09:36:58.036Z,55926.73
2018-09-29T09:39:27.190Z,55904.11
2018-09-29T09:41:56.312Z,55944.21
2018-09-29T09:44:25.496Z,55907.20
2018-09-29T09:46:54.676Z,55881.49
2018-09-29T09:49:23.856Z,55862.98
2018-09-29T09:51:53.015Z,55905.14
2018-09-29T09:54:22.183Z,55907.20
2018-09-29T09:56:51.397Z,55870.18
2018-09-29T09:59:20.593Z,55893.83
2018-09-29T10:01:55.102Z,55911.31
2018-09-29T10:04:24.301Z,55947.30
2018-09-29T10:06:53.489Z,55932.90
2018-09-29T10:09:22.644Z,55915.42
2018-09-29T10:11:51.779Z,55930.84
2018-09-29T10:14:20.960Z,55943.18
2018-09-29T10:16:50.088Z,55944.21
2018-09-29T10:19:19.238Z,55955.52
2018-09-29T10:21:48.367Z,55921.59
2018-09-29T10:24:17.516Z,55938.04
2018-09-29T10:26:46.648Z,55960.66
2018-09-29T10:29:15.793Z,55944.21
2018-09-29T10:31:44.961Z,55946.27
2018-09-29T10:34:14.121Z,55954.49
2018-09-29T10:36:43.316Z,56014.13
2018-09-29T10:39:13.328Z,55996.65
2018-09-29T10:41:42.906Z,55988.43
2018-09-29T10:44:12.783Z,55980.20
2018-09-29T10:46:41.865Z,56018.24
2018-09-29T10:49:11.061Z,55973.00
2018-09-29T10:51:40.203Z,55964.78
2018-09-29T10:54:09.381Z,55995.62
2018-09-29T10:56:39.408Z,55965.80
2018-09-29T10:59:08.733Z,55970.95
2018-09-29T11:01:37.808Z,55945.24
2018-09-29T11:04:06.982Z,55970.95
2018-09-29T11:06:36.129Z,56007.96
2018-09-29T11:09:07.890Z,56008.99
2018-09-29T11:11:37.052Z,56032.64
2018-09-29T11:14:06.206Z,56027.50
2018-09-29T11:16:35.478Z,56057.32
2018-09-29T11:19:04.614Z,56051.14
2018-09-29T11:21:33.769Z,56049.09
2018-09-29T11:24:02.953Z,56058.34
2018-09-29T11:26:32.138Z,56063.48
2018-09-29T11:29:01.267Z,56041.89
2018-09-29T11:31:30.445Z,56000.76
2018-09-29T11:33:59.684Z,56053.20
2018-09-29T11:36:28.837Z,55996.65
2018-09-29T11:38:58.051Z,56025.44
2018-09-29T11:41:27.217Z,56024.41
2018-09-29T11:43:56.365Z,56017.21
2018-09-29T11:46:25.534Z,56015.16
2018-09-29T11:48:54.748Z,56036.75
2018-09-29T11:51:23.908Z,56018.24
2018-09-29T11:53:53.102Z,56031.61
2018-09-29T11:56:22.382Z,56021.33
2018-09-29T11:58:51.500Z,56023.38
2018-09-29T12:01:20.660Z,56012.07
2018-09-29T12:03:49.820Z,56004.87
2018-09-29T12:06:19.051Z,56034.70
2018-09-29T12:08:48.180Z,56025.44
2018-09-29T12:11:17.459Z,56019.27
2018-09-29T12:13:46.656Z,56037.78
2018-09-29T12:16:15.768Z,55989.45
2018-09-29T12:18:44.963Z,56057.32
2018-09-29T12:21:14.202Z,56023.38
2018-09-29T12:23:43.345Z,56017.21
2018-09-29T12:26:12.573Z,56007.96
2018-09-29T12:28:41.749Z,55990.48
2018-09-29T12:31:10.985Z,55998.71
2018-09-29T12:33:40.112Z,56018.24
2018-09-29T12:36:09.289Z,55984.31
2018-09-29T12:38:38.418Z,55992.54
2018-09-29T12:41:07.681Z,55991.51
2018-09-29T12:43:36.824Z,56020.30
2018-09-29T12:46:05.952Z,55985.34
2018-09-29T12:48:35.097Z,55993.57
2018-09-29T12:51:04.224Z,55977.11
2018-09-29T12:53:33.390Z,55995.62
2018-09-29T12:56:02.558Z,56016.19
2018-09-29T12:58:31.777Z,55976.09
2018-09-29T13:01:00.988Z,56000.76
2018-09-29T13:03:30.152Z,55994.59
2018-09-29T13:05:59.349Z,55937.01
2018-09-29T13:08:28.505Z,55966.83
2018-09-29T13:10:57.661Z,55967.86
2018-09-29T13:13:26.825Z,55952.44
2018-09-29T13:15:56.010Z,55991.51
2018-09-29T13:18:25.161Z,55997.68
2018-09-29T13:20:54.352Z,55993.57
2018-09-29T13:23:23.538Z,55964.78
2018-09-29T13:25:52.715Z,55971.97
2018-09-29T13:28:21.933Z,55974.03
2018-09-29T13:30:51.045Z,55966.83
2018-09-29T13:33:20.212Z,55975.06
2018-09-29T13:35:49.316Z,55967.86
2018-09-29T13:38:18.465Z,55958.61
2018-09-29T13:40:47.572Z,55996.65
2018-09-29T13:43:17.254Z,55966.83
2018-09-29T13:45:46.410Z,56005.90
2018-09-29T13:48:15.508Z,55968.89
2018-09-29T13:50:44.621Z,55962.72
2018-09-29T13:53:13.758Z,55966.83
2018-09-29T13:55:42.927Z,55979.17
2018-09-29T13:58:12.045Z,56003.85
2018-09-29T14:00:41.264Z,55966.83
2018-09-29T14:03:10.355Z,55995.62
2018-09-29T14:05:39.437Z,55966.83
2018-09-29T14:08:08.571Z,55949.35
2018-09-29T14:10:37.686Z,55973.00
2018-09-29T14:13:07.077Z,55981.23
2018-09-29T14:15:36.520Z,55984.31
2018-09-29T14:18:05.721Z,55960.66
2018-09-29T14:20:34.937Z,55999.73
2018-09-29T14:23:04.117Z,55968.89
2018-09-29T14:25:33.321Z,55999.73
2018-09-29T14:28:02.410Z,56003.85
2018-09-29T14:30:31.544Z,55964.78
2018-09-29T14:33:00.651Z,55988.43
2018-09-29T14:35:29.962Z,55991.51
2018-09-29T14:37:59.132Z,55978.14
2018-09-29T14:40:28.265Z,56020.30
2018-09-29T14:42:57.388Z,56026.47
2018-09-29T14:45:26.517Z,55966.83
2018-09-29T14:47:55.661Z,55983.28
2018-09-29T14:50:24.764Z,56002.82
2018-09-29T14:52:53.904Z,56018.24
2018-09-29T14:55:23.043Z,55975.06
2018-09-29T14:57:52.156Z,55985.34
2018-09-29T15:00:21.352Z,55987.40
2018-09-29T15:02:50.488Z,55981.23
2018-09-29T15:05:19.605Z,55999.73
2018-09-29T15:07:48.849Z,55982.25
2018-09-29T15:10:18.125Z,55997.68
2018-09-29T15:12:47.145Z,55987.40
2018-09-29T15:15:16.282Z,55987.40
2018-09-29T15:17:45.562Z,56006.93
2018-09-29T15:20:14.695Z,55991.51
2018-09-29T15:22:43.802Z,56051.14
2018-09-29T15:25:13.168Z,56011.05
2018-09-29T15:27:42.520Z,55998.71
2018-09-29T15:30:11.642Z,56013.10
2018-09-29T15:32:40.825Z,55979.17
2018-09-29T15:35:10.109Z,56034.70
2018-09-29T15:37:39.264Z,56017.21
2018-09-29T15:40:08.645Z,56001.79
2018-09-29T15:42:37.773Z,56025.44
2018-09-29T15:45:08.696Z,56018.24
2018-09-29T15:47:37.757Z,56033.67
2018-09-29T15:50:07.429Z,56028.52
2018-09-29T15:52:36.613Z,56020.30
2018-09-29T15:55:05.896Z,56039.84
2018-09-29T15:57:35.057Z,56010.02
2018-09-29T16:00:04.305Z,56037.78
2018-09-29T16:02:33.430Z,56014.13
2018-09-29T16:05:02.586Z,56057.32
2018-09-29T16:07:31.718Z,56042.92
2018-09-29T16:10:00.853Z,56036.75
2018-09-29T16:12:29.974Z,56029.55
2018-09-29T16:14:59.125Z,56027.50
2018-09-29T16:17:28.269Z,56041.89
2018-09-29T16:19:57.448Z,56051.14
2018-09-29T16:22:26.572Z,56016.19
2018-09-29T16:24:55.755Z,56043.95
2018-09-29T16:27:24.872Z,56054.23
2018-09-29T16:29:54.018Z,56057.32
2018-09-29T16:32:23.178Z,56028.52
2018-09-29T16:34:52.320Z,56056.29
2018-09-29T16:37:21.511Z,56035.72
2018-09-29T16:39:50.676Z,56031.61
2018-09-29T16:42:19.884Z,56061.43
2018-09-29T16:44:49.047Z,56069.65
2018-09-29T16:47:18.230Z,56041.89
2018-09-29T16:49:47.420Z,56025.44
2018-09-29T16:52:16.574Z,56042.92
2018-09-29T16:54:45.790Z,56074.80
2018-09-29T16:57:15.016Z,55995.62
2018-09-29T16:59:44.174Z,56051.14
2018-09-29T17:02:13.341Z,56044.98
2018-09-29T17:04:42.677Z,56059.37
2018-09-29T17:07:11.710Z,56042.92
2018-09-29T17:09:40.881Z,56048.06
2018-09-29T17:12:10.041Z,56052.18
2018-09-29T17:14:39.172Z,56069.65
2018-09-29T17:17:08.445Z,56063.48
2018-09-29T17:19:37.588Z,56024.41
2018-09-29T17:22:06.768Z,56065.54
2018-09-29T17:24:35.979Z,56074.80
2018-09-29T17:27:05.134Z,56077.88
2018-09-29T17:29:34.343Z,56083.02
2018-09-29T17:32:03.623Z,56070.68
2018-09-29T17:34:32.828Z,56077.88
2018-09-29T17:37:01.977Z,56044.98
2018-09-29T17:39:31.140Z,56062.46
2018-09-29T17:42:00.316Z,56091.25
2018-09-29T17:44:29.476Z,56078.91
2018-09-29T17:46:58.613Z,56071.71
2018-09-29T17:49:27.757Z,56060.40
2018-09-29T17:51:56.921Z,56069.65
2018-09-29T17:54:26.079Z,56054.23
2018-09-29T17:56:55.272Z,56079.94
2018-09-29T17:59:24.453Z,56061.43
2018-09-29T18:01:53.641Z,56090.22
2018-09-29T18:04:22.863Z,56087.14
2018-09-29T18:06:52.021Z,56048.06
2018-09-29T18:09:21.194Z,56066.57
2018-09-29T18:11:50.381Z,56080.96
2018-09-29T18:14:19.520Z,56027.50
2018-09-29T18:16:48.904Z,56079.94
2018-09-29T18:19:18.062Z,56052.18
2018-09-29T18:21:47.210Z,56073.77
2018-09-29T18:24:16.386Z,56108.73
2018-09-29T18:26:45.512Z,56083.02
2018-09-29T18:29:14.659Z,56059.37
2018-09-29T18:31:43.790Z,56056.29
2018-09-29T18:34:12.899Z,56071.71
2018-09-29T18:36:42.003Z,56103.59
2018-09-29T18:39:11.513Z,56034.70
2018-09-29T18:41:40.614Z,56079.94
2018-09-29T18:44:09.843Z,56087.14
2018-09-29T18:46:38.956Z,56072.74
2018-09-29T18:49:08.130Z,56076.85
2018-09-29T18:51:37.342Z,56075.82
2018-09-29T18:54:06.452Z,56071.71
2018-09-29T18:56:35.622Z,56074.80
2018-09-29T18:59:04.764Z,56097.42
2018-09-29T19:01:33.891Z,56079.94
2018-09-29T19:04:03.121Z,56098.45
2018-09-29T19:06:32.282Z,56064.51
2018-09-29T19:09:01.432Z,56112.84
2018-09-29T19:11:30.580Z,56088.16
2018-09-29T19:13:59.718Z,56077.88
2018-09-29T19:16:28.897Z,56092.28
2018-09-29T19:18:58.049Z,56077.88
2018-09-29T19:21:27.210Z,56051.14
2018-09-29T19:23:56.350Z,56063.48
2018-09-29T19:26:25.481Z,56065.54
2018-09-29T19:28:54.589Z,56082.00
2018-09-29T19:31:23.720Z,56114.90
2018-09-29T19:33:52.854Z,56074.80
2018-09-29T19:36:22.018Z,56082.00
2018-09-29T19:38:51.164Z,56073.77
2018-09-29T19:41:20.303Z,56074.80
2018-09-29T19:43:49.428Z,56075.82
2018-09-29T19:46:18.545Z,56078.91
2018-09-29T19:48:47.674Z,56075.82
2018-09-29T19:51:16.906Z,56072.74
2018-09-29T19:53:45.991Z,56073.77
2018-09-29T19:56:15.146Z,56100.50
2018-09-29T19:58:44.278Z,56082.00
2018-09-29T20:01:13.449Z,56065.54
2018-09-29T20:03:42.603Z,56077.88
2018-09-29T20:06:11.768Z,56067.60
2018-09-29T20:08:41.134Z,56092.28
2018-09-29T20:11:10.294Z,56092.28
2018-09-29T20:13:39.491Z,56094.33
2018-09-29T20:16:08.819Z,56055.26
2018-09-29T20:18:37.922Z,56079.94
2018-09-29T20:21:07.127Z,56053.20
2018-09-29T20:23:36.217Z,56097.42
2018-09-29T20:26:05.345Z,56066.57
2018-09-29T20:28:34.491Z,56096.39
2018-09-29T20:31:03.651Z,56039.84
2018-09-29T20:33:32.774Z,56090.22
2018-09-29T20:36:01.907Z,56091.25
2018-09-29T20:38:31.106Z,56056.29
2018-09-29T20:41:00.248Z,56099.47
2018-09-29T20:43:29.337Z,56061.43
2018-09-29T20:45:58.465Z,56092.28
2018-09-29T20:48:27.639Z,56126.21
2018-09-29T20:50:56.818Z,56087.14
2018-09-29T20:53:25.970Z,56056.29
2018-09-29T20:55:55.154Z,56082.00
2018-09-29T20:58:24.271Z,56125.18
2018-09-29T21:00:53.419Z,56112.84
2018-09-29T21:03:22.575Z,56101.53
2018-09-29T21:05:51.732Z,56080.96
2018-09-29T21:08:20.916Z,56074.80
2018-09-29T21:10:50.068Z,56123.12
2018-09-29T21:13:19.278Z,56110.79
2018-09-29T21:15:48.378Z,56070.68
2018-09-29T21:18:17.495Z,56055.26
2018-09-29T21:20:46.626Z,56109.76
2018-09-29T21:23:15.792Z,56113.87
2018-09-29T21:25:44.917Z,56106.67
2018-09-29T21:28:14.183Z,56107.70
2018-09-29T21:30:43.331Z,56114.90
2018-09-29T21:33:12.488Z,56067.60
2018-09-29T21:35:41.697Z,56083.02
2018-09-29T21:38:10.864Z,56082.00
2018-09-29T21:40:40.016Z,56076.85
2018-09-29T21:43:09.176Z,56074.80
2018-09-29T21:45:38.406Z,56125.18
2018-09-29T21:48:07.532Z,56098.45
2018-09-29T21:50:36.664Z,56102.56
2018-09-29T21:53:05.839Z,56076.85
2018-09-29T21:55:35.009Z,56113.87
2018-09-29T21:58:04.190Z,56097.42
2018-09-29T22:00:38.682Z,56071.71
2018-09-29T22:03:08.086Z,56084.05
2018-09-29T22:05:37.263Z,56091.25
2018-09-29T22:08:06.492Z,56064.51
2018-09-29T22:10:35.700Z,56104.62
2018-09-29T22:13:05.137Z,56079.94
2018-09-29T22:15:34.287Z,56115.93
2018-09-29T22:18:03.453Z,56102.56
2018-09-29T22:20:32.696Z,56066.57
2018-09-29T22:23:01.847Z,56108.73
2018-09-29T22:25:31.110Z,56116.95
2018-09-29T22:28:00.222Z,56102.56
2018-09-29T22:30:29.439Z,56112.84
2018-09-29T22:32:58.561Z,56109.76
2018-09-29T22:35:27.753Z,56114.90
2018-09-29T22:37:56.874Z,56079.94
2018-09-29T22:40:26.057Z,56079.94
2018-09-29T22:42:55.205Z,56074.80
2018-09-29T22:45:24.361Z,56144.71
2018-09-29T22:47:53.496Z,56075.82
2018-09-29T22:50:22.618Z,56091.25
2018-09-29T22:52:51.796Z,56113.87
2018-09-29T22:55:20.956Z,56105.64
2018-09-29T22:57:50.136Z,56086.11
2018-09-29T23:00:19.265Z,56117.98
2018-09-29T23:02:48.456Z,56101.53
2018-09-29T23:05:17.681Z,56093.30
2018-09-29T23:07:46.888Z,56069.65
2018-09-29T23:10:16.087Z,56104.62
2018-09-29T23:12:45.293Z,56085.08
2018-09-29T23:15:14.489Z,56116.95
2018-09-29T23:17:43.701Z,56075.82
2018-09-29T23:20:12.909Z,56087.14
2018-09-29T23:22:42.120Z,56090.22
2018-09-29T23:25:11.262Z,56095.36
2018-09-29T23:27:40.445Z,56120.04
2018-09-29T23:30:09.977Z,56094.33
2018-09-29T23:32:39.161Z,56109.76
2018-09-29T23:35:08.345Z,56089.19
2018-09-29T23:37:37.569Z,56056.29
2018-09-29T23:40:06.801Z,56109.76
2018-09-29T23:42:36.130Z,56105.64
2018-09-29T23:45:05.350Z,56106.67
2018-09-29T23:47:34.535Z,56110.79
2018-09-29T23:50:03.754Z,56108.73
2018-09-29T23:52:32.929Z,56104.62
2018-09-29T23:55:02.106Z,56082.00
2018-09-29T23:57:31.281Z,56109.76
